Current Conditions
Clear
Conditions



Pressure
1020.02 (hPa) - 30.12 (inHG)
Visibility

10.0 (miles) - 16.1 (km)
   Temperature
88  °F
Temperature
43  °F
Dewpoint
21  %
 Humidity
   Wind Speed
12  mph
10  kts
19  km/h
5.4  m/s
   Wind Direction
N
45°
E
90°
135°
S
180°
225°
W
270°
315°
 140°

South East
   Airport Data
KYIP
Willow Run Airport
Metar :KYIP 011853Z 14010G16KT 10SM CLR 31/06 A3012 RMK AO2 SLP192 T03110056
Thu 1st June 14:53 pm
   Raw Metar Info
Raw METAR is the most common format in the world for the transmission of observational weather data. It is highly standardized through the International Civil Aviation Organization (ICAO), which allows it to be understood throughout most of the world.
   API Info
Data Provided by
https://www.checkwx.com/weather/KYIP

Aviation Weather providing METAR, TAF, AIRMET, SIGMET and OUTLOOK Weather Reports
   © Info
CSS/SVG/PHP scripts were developed by weather34.com for use in the weather34 template © 2015-2023

Guide Info provided by Metar-Wikipedia